Finnhawk — OJNL — position and weather

sailwx.info

Track history (hours):
 
Tides and Currents Weather Stations Pressure Air Temp Water Temp Dewpoint Dewpoint Depression Visibility Wind Speed Wind Dir Waves Ship Positions

Finnhawk

Last reported at 2016-Sep-25 12:33 UTC. Time now 2016-Sep-25 14:01 UTC.
Position N 57°19' E 011°33'.

Length 163 m; draft 6.6 m.

Type: Ship. MMSI: 230007000.

Date/timePositionNaut miles runAvg speedWind from/ knotsBaromVisibWave heightAir tempDewpointWater temp
2016-Sep-25 12:33N 57°19' E 011°33'1615.8
2016-Sep-25 11:33N 57°04' E 011°43'1615.6
2016-Sep-25 10:33N 56°49' E 011°52'1615.5
2016-Sep-25 09:33N 56°34' E 011°59'3015.2
2016-Sep-25 07:33N 56°09' E 012°31'4013.5
2016-Sep-25 04:33N 55°29' E 012°42'5012.6
2016-Sep-25 00:34N 55°13' E 014°06'2813.8
2016-Sep-24 22:34N 55°31' E 014°44'1414.4
2016-Sep-24 21:34N 55°38' E 015°06'472 9.6
2016-Sep-22 20:33N 60°25' E 026°54'5 0.6
2016-Sep-22 12:33N 60°29' E 026°57'0 0.0
2016-Sep-22 04:33N 60°29' E 026°57'0 0.0
2016-Sep-22 03:33N 60°29' E 026°57'27 9.1
2016-Sep-22 00:33N 60°08' E 026°21'2317.5
2016-Sep-21 23:15N 59°60' E 027°03'1419.6
2016-Sep-21 22:33N 60°07' E 027°26'8414.0
2016-Sep-21 16:33N 59°54' E 030°13'0 0.0
2016-Sep-21 09:32N 59°54' E 030°13'0 0.0
2016-Sep-21 08:32N 59°54' E 030°13'0 0.1
2016-Sep-21 05:33N 59°53' E 030°13'19 9.4
2016-Sep-21 03:33N 60°00' E 029°38'1513.3
2016-Sep-21 02:27N 60°01' E 029°09'140 8.8
2016-Sep-20 10:33N 59°44' E 024°31'3718.5
2016-Sep-20 08:33N 59°32' E 023°21'34218.7
2016-Sep-19 14:16N 55°39' E 015°34'1319.1
2016-Sep-19 13:33N 55°34' E 015°13'1919.0
2016-Sep-19 12:33N 55°25' E 014°43'1919.0
2016-Sep-19 11:33N 55°11' E 014°20'3718.3
2016-Sep-19 09:33N 55°13' E 013°16'2713.4
2016-Sep-19 07:34N 55°31' E 012°42'1212.1
2016-Sep-19 06:33N 55°43' E 012°41'5117.0
2016-Sep-19 03:33N 56°29' E 011°58'1918.9
2016-Sep-19 02:33N 56°47' E 011°51'3818.8
2016-Sep-19 00:33N 57°23' E 011°28'42717.7
2016-Sep-18 00:26N 53°44' E 000°38'2814.9
2016-Sep-17 22:34N 53°37' W 000°08'9 8.5
2016-Sep-17 21:33N 53°44' W 000°16'0 0.3
2016-Sep-17 20:32N 53°44' W 000°16'0 0.0
2016-Sep-17 19:14N 53°44' W 000°16'0 0.0
2016-Sep-17 13:32N 53°44' W 000°16'0 0.0
2016-Sep-17 12:29N 53°44' W 000°16'0 0.0
2016-Sep-17 10:29N 53°44' W 000°16'0 0.0
2016-Sep-17 09:32N 53°44' W 000°16'0 0.0
2016-Sep-17 08:32N 53°44' W 000°16'0 0.0
2016-Sep-17 07:32N 53°44' W 000°16'0 0.1
2016-Sep-17 05:33N 53°44' W 000°16'3 3.4
2016-Sep-17 04:33N 53°41' W 000°14'33816.1
2016-Sep-16 07:33N 56°51' E 007°57'7218.0
2016-Sep-16 03:33N 57°36' E 009°41'1818.1
2016-Sep-16 02:33N 57°44' E 010°11'3216.1
2016-Sep-16 00:33N 57°36' E 011°09'3718.7
2016-Sep-15 22:33N 57°03' E 011°43'1918.5
2016-Sep-15 21:33N 56°46' E 011°54'1818.3
2016-Sep-15 20:33N 56°29' E 012°05'3718.4
2016-Sep-15 18:33N 55°58' E 012°42'  
Track history (hours):
 
Tides and Currents Weather Stations Pressure Air Temp Water Temp Dewpoint Dewpoint Depression Visibility Wind Speed Wind Dir Waves Ship Positions

Finnhawk

Last reported at 2016-Sep-25 12:33 UTC. Time now 2016-Sep-25 14:01 UTC.
Position N 57°19' E 011°33'.

Length 163 m; draft 6.6 m.

Type: Ship. MMSI: 230007000.

Date/timePositionNaut miles runAvg speedWind from/ knotsBaromVisibWave heightAir tempDewpointWater temp
2016-Sep-25 12:33N 57°19' E 011°33'1615.8
2016-Sep-25 11:33N 57°04' E 011°43'1615.6
2016-Sep-25 10:33N 56°49' E 011°52'1615.5
2016-Sep-25 09:33N 56°34' E 011°59'3015.2
2016-Sep-25 07:33N 56°09' E 012°31'4013.5
2016-Sep-25 04:33N 55°29' E 012°42'5012.6
2016-Sep-25 00:34N 55°13' E 014°06'2813.8
2016-Sep-24 22:34N 55°31' E 014°44'1414.4
2016-Sep-24 21:34N 55°38' E 015°06'472 9.6
2016-Sep-22 20:33N 60°25' E 026°54'5 0.6
2016-Sep-22 12:33N 60°29' E 026°57'0 0.0
2016-Sep-22 04:33N 60°29' E 026°57'0 0.0
2016-Sep-22 03:33N 60°29' E 026°57'27 9.1
2016-Sep-22 00:33N 60°08' E 026°21'2317.5
2016-Sep-21 23:15N 59°60' E 027°03'1419.6
2016-Sep-21 22:33N 60°07' E 027°26'8414.0
2016-Sep-21 16:33N 59°54' E 030°13'0 0.0
2016-Sep-21 09:32N 59°54' E 030°13'0 0.0
2016-Sep-21 08:32N 59°54' E 030°13'0 0.1
2016-Sep-21 05:33N 59°53' E 030°13'19 9.4
2016-Sep-21 03:33N 60°00' E 029°38'1513.3
2016-Sep-21 02:27N 60°01' E 029°09'140 8.8
2016-Sep-20 10:33N 59°44' E 024°31'3718.5
2016-Sep-20 08:33N 59°32' E 023°21'34218.7
2016-Sep-19 14:16N 55°39' E 015°34'1319.1
2016-Sep-19 13:33N 55°34' E 015°13'1919.0
2016-Sep-19 12:33N 55°25' E 014°43'1919.0
2016-Sep-19 11:33N 55°11' E 014°20'3718.3
2016-Sep-19 09:33N 55°13' E 013°16'2713.4
2016-Sep-19 07:34N 55°31' E 012°42'1212.1
2016-Sep-19 06:33N 55°43' E 012°41'5117.0
2016-Sep-19 03:33N 56°29' E 011°58'1918.9
2016-Sep-19 02:33N 56°47' E 011°51'3818.8
2016-Sep-19 00:33N 57°23' E 011°28'42717.7
2016-Sep-18 00:26N 53°44' E 000°38'2814.9
2016-Sep-17 22:34N 53°37' W 000°08'9 8.5
2016-Sep-17 21:33N 53°44' W 000°16'0 0.3
2016-Sep-17 20:32N 53°44' W 000°16'0 0.0
2016-Sep-17 19:14N 53°44' W 000°16'0 0.0
2016-Sep-17 13:32N 53°44' W 000°16'0 0.0
2016-Sep-17 12:29N 53°44' W 000°16'0 0.0
2016-Sep-17 10:29N 53°44' W 000°16'0 0.0
2016-Sep-17 09:32N 53°44' W 000°16'0 0.0
2016-Sep-17 08:32N 53°44' W 000°16'0 0.0
2016-Sep-17 07:32N 53°44' W 000°16'0 0.1
2016-Sep-17 05:33N 53°44' W 000°16'3 3.4
2016-Sep-17 04:33N 53°41' W 000°14'33816.1
2016-Sep-16 07:33N 56°51' E 007°57'7218.0
2016-Sep-16 03:33N 57°36' E 009°41'1818.1
2016-Sep-16 02:33N 57°44' E 010°11'3216.1
2016-Sep-16 00:33N 57°36' E 011°09'3718.7
2016-Sep-15 22:33N 57°03' E 011°43'1918.5
2016-Sep-15 21:33N 56°46' E 011°54'1818.3
2016-Sep-15 20:33N 56°29' E 012°05'3718.4
2016-Sep-15 18:33N 55°58' E 012°42'  

Dump ship's entire track history